createdAt,value
2017-10-09T00:52:43.498Z,10.30
2017-10-09T00:55:10.963Z,9.10
2017-10-09T00:57:38.438Z,9.73
2017-10-09T01:00:05.921Z,10.33
2017-10-09T01:02:33.384Z,8.63
2017-10-09T01:05:00.887Z,9.43
2017-10-09T01:07:28.342Z,9.50
2017-10-09T01:09:55.822Z,9.17
2017-10-09T01:12:23.286Z,8.60
2017-10-09T01:14:50.739Z,8.40
2017-10-09T01:17:18.209Z,8.57
2017-10-09T01:19:45.663Z,7.37
2017-10-09T01:22:13.900Z,7.90
2017-10-09T01:24:41.358Z,8.73
2017-10-09T01:27:08.822Z,8.90
2017-10-09T01:29:36.294Z,8.83
2017-10-09T01:32:03.756Z,8.47
2017-10-09T01:34:31.211Z,7.40
2017-10-09T01:36:58.687Z,7.13
2017-10-09T01:39:27.662Z,8.00
2017-10-09T01:41:55.138Z,7.67
2017-10-09T01:44:22.591Z,8.43
2017-10-09T01:46:50.059Z,8.27
2017-10-09T01:49:18.295Z,7.63
2017-10-09T01:51:45.762Z,5.67
2017-10-09T01:54:13.230Z,6.23
2017-10-09T01:56:40.682Z,6.70
2017-10-09T01:59:09.690Z,6.37
2017-10-09T02:01:37.937Z,6.87
2017-10-09T02:04:05.390Z,6.23
2017-10-09T02:06:32.851Z,7.73
2017-10-09T02:09:00.340Z,6.50
2017-10-09T02:11:28.562Z,7.30
2017-10-09T02:13:56.014Z,7.60
2017-10-09T02:16:23.496Z,7.00
2017-10-09T02:18:50.954Z,7.73
2017-10-09T02:21:18.438Z,8.00
2017-10-09T02:23:46.666Z,6.60
2017-10-09T02:26:14.104Z,7.37
2017-10-09T02:28:41.575Z,7.23
2017-10-09T02:31:09.025Z,6.97
2017-10-09T02:33:36.502Z,7.83
2017-10-09T02:36:03.972Z,7.20
2017-10-09T02:38:31.457Z,7.57
2017-10-09T02:40:59.675Z,6.77
2017-10-09T02:43:27.132Z,8.50
2017-10-09T02:45:54.602Z,6.80
2017-10-09T02:48:22.067Z,7.17
2017-10-09T02:50:49.534Z,7.70
2017-10-09T02:53:16.991Z,6.70
2017-10-09T02:55:44.478Z,7.63
2017-10-09T02:58:12.715Z,7.37
2017-10-09T03:00:40.161Z,7.43
2017-10-09T03:03:07.639Z,8.43
2017-10-09T03:05:35.090Z,8.10
2017-10-09T03:08:02.578Z,7.87
2017-10-09T03:10:30.803Z,7.50
2017-10-09T03:12:58.259Z,8.10
2017-10-09T03:15:25.719Z,7.40
2017-10-09T03:17:53.174Z,7.40
2017-10-09T03:20:20.667Z,7.80
2017-10-09T03:25:48.067Z,7.80
2017-10-09T03:28:31.318Z,8.13
2017-10-09T03:30:58.795Z,7.93
2017-10-09T03:33:26.267Z,6.77
2017-10-09T03:35:53.723Z,6.83
2017-10-09T03:38:21.223Z,7.30
2017-10-09T03:40:48.687Z,6.97
2017-10-09T03:43:16.140Z,7.50
2017-10-09T03:45:43.619Z,7.20
2017-10-09T03:48:11.094Z,7.63
2017-10-09T03:50:39.329Z,7.70
2017-10-09T03:53:06.787Z,6.97
2017-10-09T03:55:34.263Z,7.30
2017-10-09T03:58:01.722Z,7.03
2017-10-09T04:00:29.174Z,6.73
2017-10-09T04:02:56.648Z,7.60
2017-10-09T04:05:24.107Z,6.63
2017-10-09T04:07:51.577Z,7.47
2017-10-09T04:10:19.034Z,7.43
2017-10-09T04:12:46.491Z,7.70
2017-10-09T04:15:13.963Z,7.37
2017-10-09T04:17:42.188Z,7.90
2017-10-09T04:20:09.662Z,7.70
2017-10-09T04:22:37.123Z,7.90
2017-10-09T04:25:04.579Z,8.10
2017-10-09T04:27:32.047Z,6.83
2017-10-09T04:29:59.517Z,7.73
2017-10-09T04:32:27.750Z,8.03
2017-10-09T04:34:55.215Z,8.17
2017-10-09T04:37:22.678Z,7.43
2017-10-09T04:39:50.134Z,8.90
2017-10-09T04:42:17.618Z,7.40
2017-10-09T04:44:45.853Z,8.17
2017-10-09T04:47:13.319Z,7.70
2017-10-09T04:49:40.780Z,6.10
2017-10-09T04:52:08.248Z,6.87
2017-10-09T04:54:35.726Z,7.00
2017-10-09T04:57:03.951Z,7.13
2017-10-09T04:59:31.406Z,7.60
2017-10-09T05:01:58.881Z,7.40
2017-10-09T05:04:26.710Z,7.43
2017-10-09T05:06:54.182Z,8.13
2017-10-09T05:09:21.634Z,7.50
2017-10-09T05:11:49.094Z,7.50
2017-10-09T05:14:16.563Z,6.97
2017-10-09T05:16:44.014Z,7.40
2017-10-09T05:19:11.498Z,6.90
2017-10-09T05:21:39.722Z,7.23
2017-10-09T05:24:07.183Z,8.20
2017-10-09T05:26:34.659Z,7.40
2017-10-09T05:29:02.106Z,6.60
2017-10-09T05:31:29.574Z,6.87
2017-10-09T05:33:57.043Z,7.40
2017-10-09T05:36:24.494Z,7.17
2017-10-09T05:38:53.484Z,6.63
2017-10-09T05:41:20.934Z,8.50
2017-10-09T05:43:48.402Z,7.00
2017-10-09T05:46:16.622Z,7.00
2017-10-09T05:48:44.099Z,9.70
2017-10-09T05:51:11.578Z,31.80
2017-10-09T05:53:39.039Z,53.13
2017-10-09T05:56:06.515Z,28.93
2017-10-09T05:58:33.970Z,22.80
2017-10-09T06:01:01.439Z,26.03
2017-10-09T06:03:29.675Z,32.00
2017-10-09T06:05:57.131Z,34.67
2017-10-09T06:08:24.608Z,22.90
2017-10-09T06:10:52.062Z,14.10
2017-10-09T06:13:19.555Z,14.57
2017-10-09T06:15:47.779Z,12.30
2017-10-09T06:18:15.246Z,10.97
2017-10-09T06:20:42.722Z,10.10
2017-10-09T06:23:11.036Z,10.63
2017-10-09T06:25:38.502Z,11.33
2017-10-09T06:28:05.976Z,14.00
2017-10-09T06:30:33.462Z,13.17
2017-10-09T06:33:01.698Z,12.83
2017-10-09T06:35:29.186Z,12.03
2017-10-09T06:37:56.651Z,10.70
2017-10-09T06:40:24.879Z,11.60
2017-10-09T06:42:52.358Z,11.87
2017-10-09T06:45:19.831Z,12.63
2017-10-09T06:47:47.303Z,13.60
2017-10-09T06:50:15.543Z,13.50
2017-10-09T06:52:43.024Z,13.53
2017-10-09T06:55:10.487Z,14.50
2017-10-09T06:57:38.726Z,15.83
2017-10-09T07:00:06.260Z,14.80
2017-10-09T07:02:33.720Z,17.63
2017-10-09T07:05:01.215Z,17.87
2017-10-09T07:07:28.692Z,19.30
2017-10-09T07:09:56.922Z,23.87
2017-10-09T07:12:24.394Z,23.10
2017-10-09T07:14:51.882Z,24.00
2017-10-09T07:17:20.123Z,23.23
2017-10-09T07:19:47.624Z,20.20
2017-10-09T07:22:15.087Z,19.10
2017-10-09T07:24:42.568Z,18.53
2017-10-09T07:27:10.048Z,17.80
2017-10-09T07:29:37.574Z,18.80
2017-10-09T07:32:05.028Z,17.17
2017-10-09T07:34:32.500Z,14.70
2017-10-09T07:36:59.994Z,16.10
2017-10-09T07:39:27.457Z,17.47
2017-10-09T07:41:54.918Z,17.23
2017-10-09T07:44:23.178Z,16.67
2017-10-09T07:46:50.639Z,16.53
2017-10-09T07:49:18.144Z,17.80
2017-10-09T07:51:45.611Z,14.83
2017-10-09T07:54:13.072Z,17.77
2017-10-09T07:56:40.547Z,15.10
2017-10-09T07:59:08.026Z,15.50
2017-10-09T08:01:35.502Z,15.73
2017-10-09T08:04:03.727Z,14.97
2017-10-09T08:06:31.214Z,14.53
2017-10-09T08:08:58.675Z,11.70
2017-10-09T08:11:26.898Z,9.97
2017-10-09T08:13:54.374Z,11.17
2017-10-09T08:16:21.835Z,12.37
2017-10-09T08:18:49.326Z,12.80
2017-10-09T08:21:17.546Z,13.30
2017-10-09T08:23:45.015Z,13.53
2017-10-09T08:26:12.793Z,13.70
2017-10-09T08:28:40.258Z,14.87
2017-10-09T08:31:07.715Z,14.27
2017-10-09T08:33:35.189Z,14.60
2017-10-09T08:36:03.433Z,14.80
2017-10-09T08:38:30.897Z,13.57
2017-10-09T08:40:58.366Z,13.53
2017-10-09T08:43:25.831Z,15.37
2017-10-09T08:45:54.066Z,15.93
2017-10-09T08:48:21.531Z,15.70
2017-10-09T08:50:49.057Z,14.90
2017-10-09T08:53:16.511Z,16.20
2017-10-09T08:55:43.994Z,14.63
2017-10-09T08:58:11.464Z,16.03
2017-10-09T09:00:38.955Z,17.07
2017-10-09T09:03:07.195Z,16.67
2017-10-09T09:05:34.655Z,18.27
2017-10-09T09:08:02.611Z,18.50
2017-10-09T09:10:30.076Z,16.37
2017-10-09T09:12:57.567Z,19.07
2017-10-09T09:15:25.795Z,17.87
2017-10-09T09:17:53.279Z,18.80
2017-10-09T09:20:20.761Z,18.50
2017-10-09T09:22:48.222Z,18.97
2017-10-09T09:25:15.694Z,18.30
2017-10-09T09:27:43.172Z,18.07
2017-10-09T09:30:10.643Z,18.53
2017-10-09T09:32:38.119Z,20.30
2017-10-09T09:35:05.591Z,19.47
2017-10-09T09:37:33.826Z,19.30
2017-10-09T09:40:01.354Z,19.43
2017-10-09T09:42:28.813Z,22.20
2017-10-09T09:44:56.292Z,22.10
2017-10-09T09:47:23.778Z,21.80
2017-10-09T09:49:51.240Z,22.87
2017-10-09T09:52:18.754Z,22.53
2017-10-09T09:54:46.221Z,23.60
2017-10-09T09:57:13.706Z,24.40
2017-10-09T09:59:41.167Z,24.37
2017-10-09T10:02:09.419Z,25.70
2017-10-09T10:04:36.893Z,24.93
2017-10-09T10:07:04.350Z,24.60
2017-10-09T10:09:31.847Z,24.20
2017-10-09T10:11:59.318Z,25.00
2017-10-09T10:14:26.782Z,26.90
2017-10-09T10:16:54.259Z,26.53
2017-10-09T10:19:21.726Z,27.53
2017-10-09T10:21:49.203Z,27.13
2017-10-09T10:24:17.442Z,28.63
2017-10-09T10:26:44.917Z,30.57
2017-10-09T10:29:12.386Z,30.70
2017-10-09T10:31:40.611Z,29.60
2017-10-09T10:34:08.092Z,32.07
2017-10-09T10:36:35.555Z,33.23
2017-10-09T10:39:03.018Z,33.47
2017-10-09T10:41:30.510Z,33.53
2017-10-09T10:43:57.981Z,30.30
2017-10-09T10:46:25.467Z,33.40
2017-10-09T10:48:52.933Z,32.80
2017-10-09T10:51:20.414Z,30.83
2017-10-09T10:53:48.637Z,32.73
2017-10-09T10:56:16.119Z,34.10
2017-10-09T10:58:43.582Z,33.20
2017-10-09T11:01:11.047Z,32.97
2017-10-09T11:03:38.527Z,33.50
2017-10-09T11:06:06.759Z,32.57
2017-10-09T11:08:34.234Z,33.33
2017-10-09T11:11:01.714Z,32.77
2017-10-09T11:13:29.952Z,31.80
2017-10-09T11:15:57.434Z,31.97
2017-10-09T11:18:25.658Z,28.70
2017-10-09T11:20:53.147Z,32.80
2017-10-09T11:23:20.627Z,32.27
2017-10-09T11:25:48.874Z,28.67
2017-10-09T11:28:16.337Z,27.23
2017-10-09T11:30:43.811Z,27.60
2017-10-09T11:33:12.058Z,25.87
2017-10-09T11:35:39.523Z,26.57
2017-10-09T11:38:07.011Z,27.20
2017-10-09T11:40:35.245Z,27.40
2017-10-09T11:43:02.707Z,28.20
2017-10-09T11:45:30.261Z,27.43
2017-10-09T11:47:57.738Z,28.50
2017-10-09T11:50:25.994Z,26.13
2017-10-09T11:52:53.471Z,26.63
2017-10-09T11:55:20.938Z,27.87
2017-10-09T11:57:49.187Z,27.03
2017-10-09T12:00:16.667Z,26.57
2017-10-09T12:02:44.915Z,28.27
2017-10-09T12:05:12.418Z,26.70
2017-10-09T12:07:39.905Z,26.07
2017-10-09T12:10:07.451Z,26.37
2017-10-09T12:12:34.922Z,25.47
2017-10-09T12:15:02.403Z,26.20
2017-10-09T12:17:29.862Z,23.80
2017-10-09T12:19:58.860Z,23.87
2017-10-09T12:22:26.313Z,24.07
2017-10-09T12:24:53.783Z,25.70
2017-10-09T12:27:22.244Z,23.13
2017-10-09T12:29:49.769Z,23.53
2017-10-09T12:32:17.351Z,23.13
2017-10-09T12:34:45.023Z,22.30
2017-10-09T12:37:12.559Z,22.80
2017-10-09T12:39:40.111Z,19.97
2017-10-09T12:42:07.843Z,20.80
2017-10-09T12:44:35.502Z,20.83
2017-10-09T12:47:02.993Z,22.60
2017-10-09T12:49:30.685Z,19.97
2017-10-09T12:51:59.038Z,19.80
2017-10-09T12:54:26.682Z,19.90
2017-10-09T12:56:54.280Z,21.03
2017-10-09T12:59:21.822Z,19.20
2017-10-09T13:01:50.102Z,19.30
2017-10-09T13:04:18.136Z,18.23
2017-10-09T13:06:45.668Z,16.80
2017-10-09T13:09:13.919Z,16.20
2017-10-09T13:11:41.398Z,16.63
2017-10-09T13:14:09.732Z,16.80
2017-10-09T13:16:37.402Z,16.83
2017-10-09T13:19:05.060Z,15.90
2017-10-09T13:21:32.676Z,15.13
2017-10-09T13:24:00.268Z,15.40
2017-10-09T13:26:27.755Z,14.67
2017-10-09T13:28:55.384Z,16.17
2017-10-09T13:31:22.882Z,15.93
2017-10-09T13:33:50.358Z,15.40
2017-10-09T13:36:18.599Z,15.10
2017-10-09T13:38:46.061Z,16.20
2017-10-09T13:41:13.597Z,14.90
2017-10-09T13:43:41.200Z,14.70
2017-10-09T13:46:08.947Z,15.97
2017-10-09T13:48:36.487Z,15.90
2017-10-09T13:51:03.978Z,15.17
2017-10-09T13:53:32.204Z,15.77
2017-10-09T13:56:00.152Z,14.67
2017-10-09T13:58:28.370Z,14.50
2017-10-09T14:00:56.020Z,17.70
2017-10-09T14:03:23.491Z,15.93
2017-10-09T14:05:51.025Z,16.00
2017-10-09T14:08:18.494Z,16.20
2017-10-09T14:10:46.072Z,17.90
2017-10-09T14:13:14.386Z,17.27
2017-10-09T14:15:41.859Z,16.73
2017-10-09T14:18:09.491Z,16.17
2017-10-09T14:20:36.968Z,16.60
2017-10-09T14:23:04.439Z,16.10
2017-10-09T14:25:31.912Z,16.57
2017-10-09T14:27:59.383Z,18.30
2017-10-09T14:30:26.863Z,17.13
2017-10-09T14:40:16.951Z,17.60
2017-10-09T14:42:44.853Z,16.17
2017-10-09T14:45:13.016Z,16.57
2017-10-09T14:47:42.281Z,16.63
2017-10-09T14:50:10.791Z,16.50
2017-10-09T14:52:39.828Z,17.63
2017-10-09T14:55:08.216Z,17.00
2017-10-09T14:57:36.571Z,16.20
2017-10-09T15:00:04.799Z,16.20
2017-10-09T15:02:32.285Z,17.27
2017-10-09T15:05:00.526Z,17.30
2017-10-09T15:07:28.004Z,17.50
2017-10-09T15:09:55.471Z,16.00
2017-10-09T15:12:22.980Z,14.83
2017-10-09T15:14:50.459Z,16.63
2017-10-09T15:17:17.929Z,16.20
2017-10-09T15:19:45.389Z,16.37
2017-10-09T15:22:12.876Z,16.00
2017-10-09T15:24:40.348Z,17.33
2017-10-09T15:27:07.893Z,16.77
2017-10-09T15:29:35.382Z,16.17
2017-10-09T15:32:02.859Z,17.53
2017-10-09T15:34:30.342Z,16.37
2017-10-09T15:36:58.604Z,18.47
2017-10-09T15:39:26.058Z,18.80
2017-10-09T15:41:53.540Z,18.70
2017-10-09T15:44:21.018Z,17.17
2017-10-09T15:46:48.503Z,18.00
2017-10-09T15:49:15.970Z,17.87
2017-10-09T15:51:43.491Z,17.57
2017-10-09T15:54:10.972Z,19.00
2017-10-09T15:56:38.444Z,18.40
2017-10-09T15:59:05.926Z,18.33
2017-10-09T16:01:34.173Z,17.63
2017-10-09T16:04:01.667Z,18.67
2017-10-09T16:06:29.911Z,19.47
2017-10-09T16:08:58.149Z,19.20
2017-10-09T16:11:25.617Z,19.93
2017-10-09T16:13:53.086Z,20.23
2017-10-09T16:16:20.573Z,20.30
2017-10-09T16:18:48.803Z,19.20
2017-10-09T16:21:16.280Z,20.40
2017-10-09T16:23:43.763Z,18.90
2017-10-09T16:26:12.085Z,16.97
2017-10-09T16:28:39.567Z,17.00
2017-10-09T16:31:07.028Z,16.43
2017-10-09T16:33:34.490Z,15.20
2017-10-09T16:36:01.989Z,13.47
2017-10-09T16:38:29.447Z,13.20
2017-10-09T16:40:56.923Z,12.80
2017-10-09T16:43:24.383Z,12.70
2017-10-09T16:45:51.863Z,12.20
2017-10-09T16:48:19.343Z,12.00
2017-10-09T16:50:46.804Z,11.73
2017-10-09T16:53:15.835Z,11.73
2017-10-09T16:55:43.347Z,10.10
2017-10-09T16:58:10.814Z,10.47
2017-10-09T17:00:39.065Z,12.37
2017-10-09T17:03:06.555Z,11.37
2017-10-09T17:05:34.052Z,11.30
2017-10-09T17:08:01.910Z,12.53
2017-10-09T17:10:29.372Z,11.33
2017-10-09T17:12:56.889Z,11.13
2017-10-09T17:15:25.128Z,12.57
2017-10-09T17:17:52.625Z,12.10
2017-10-09T17:20:20.925Z,12.57
2017-10-09T17:22:48.465Z,12.60
2017-10-09T17:25:16.043Z,12.67
2017-10-09T17:27:43.519Z,12.07
2017-10-09T17:30:11.123Z,12.23
2017-10-09T17:32:39.468Z,13.27
2017-10-09T17:35:07.016Z,12.83
2017-10-09T17:37:34.492Z,13.57
2017-10-09T17:40:01.995Z,12.27
2017-10-09T17:42:29.463Z,14.43
2017-10-09T17:44:56.955Z,13.67
2017-10-09T17:47:24.431Z,13.27
2017-10-09T17:49:51.915Z,14.23
2017-10-09T17:52:19.389Z,15.33
2017-10-09T17:54:47.014Z,17.80
2017-10-09T17:57:15.246Z,18.20
2017-10-09T17:59:42.881Z,24.37
2017-10-09T18:02:10.515Z,31.67
2017-10-09T18:04:38.133Z,25.07
2017-10-09T18:07:05.723Z,15.30
2017-10-09T18:09:33.320Z,14.77
2017-10-09T18:12:00.867Z,15.55
2017-10-09T18:14:29.208Z,15.93
2017-10-09T18:16:57.629Z,15.27
2017-10-09T18:19:25.108Z,14.37
2017-10-09T18:21:52.700Z,17.97
2017-10-09T18:24:20.979Z,16.93
2017-10-09T18:26:48.650Z,15.80
2017-10-09T18:29:16.916Z,15.90
2017-10-09T18:31:44.511Z,16.67
2017-10-09T18:34:12.308Z,17.80
2017-10-09T18:36:39.886Z,18.50
2017-10-09T18:39:07.456Z,19.97
2017-10-09T18:41:35.773Z,15.73
2017-10-09T18:44:03.256Z,16.80
2017-10-09T18:46:30.711Z,16.63
2017-10-09T18:48:58.219Z,19.30
2017-10-09T18:51:26.519Z,17.23
2017-10-09T18:53:53.997Z,16.23
2017-10-09T18:56:21.487Z,16.30
2017-10-09T18:58:48.977Z,16.17
2017-10-09T19:01:16.530Z,16.97
2017-10-09T19:03:44.183Z,16.27
2017-10-09T19:06:11.679Z,15.87
2017-10-09T19:08:39.260Z,15.63
2017-10-09T19:11:06.763Z,15.37
2017-10-09T19:13:35.148Z,18.00
2017-10-09T19:16:02.734Z,21.97
2017-10-09T19:18:30.278Z,18.33
2017-10-09T19:20:57.791Z,16.50
2017-10-09T19:23:25.440Z,16.30
2017-10-09T19:25:52.976Z,16.47
2017-10-09T19:28:20.954Z,17.93
2017-10-09T19:30:49.339Z,26.77
2017-10-09T19:33:16.892Z,23.23
2017-10-09T19:35:44.730Z,18.40
2017-10-09T19:38:12.535Z,23.87
2017-10-09T19:40:40.043Z,31.17
2017-10-09T19:43:07.584Z,19.53
2017-10-09T19:45:35.854Z,17.40
2017-10-09T19:48:04.247Z,15.60
2017-10-09T19:50:31.844Z,16.10
2017-10-09T19:52:59.383Z,15.07
2017-10-09T19:55:27.092Z,15.03
2017-10-09T19:57:54.571Z,14.80
2017-10-09T20:00:22.806Z,15.23
2017-10-09T20:02:50.295Z,15.80
2017-10-09T20:05:17.754Z,17.27
2017-10-09T20:07:46.008Z,15.90
2017-10-09T20:10:13.491Z,16.77
2017-10-09T20:12:41.720Z,16.20
2017-10-09T20:15:09.202Z,15.37
2017-10-09T20:17:36.662Z,16.70
2017-10-09T20:20:04.229Z,15.50
2017-10-09T20:22:31.710Z,15.20
2017-10-09T20:24:59.947Z,16.20
2017-10-09T20:27:27.412Z,18.20
2017-10-09T20:29:55.660Z,19.97
2017-10-09T20:32:23.143Z,17.00
2017-10-09T20:34:50.612Z,15.20
2017-10-09T20:37:18.855Z,15.20
2017-10-09T20:39:46.326Z,14.73
2017-10-09T20:42:13.806Z,14.43
2017-10-09T20:44:42.030Z,15.10
2017-10-09T20:47:09.498Z,16.40
2017-10-09T20:49:36.983Z,16.87
2017-10-09T20:52:05.211Z,16.50
2017-10-09T20:54:32.690Z,16.50
2017-10-09T20:57:00.147Z,16.10
2017-10-09T20:59:27.643Z,15.60
2017-10-09T21:01:55.865Z,17.20
2017-10-09T21:04:23.334Z,17.00
2017-10-09T21:06:50.806Z,17.53
2017-10-09T21:09:18.282Z,18.30
2017-10-09T21:11:46.511Z,16.20
2017-10-09T21:14:14.041Z,17.00
2017-10-09T21:16:41.515Z,17.70
2017-10-09T21:19:08.982Z,17.90
2017-10-09T21:21:36.470Z,18.30
2017-10-09T21:24:04.724Z,17.30
2017-10-09T21:26:32.194Z,18.40
2017-10-09T21:28:59.654Z,18.70
2017-10-09T21:31:27.135Z,18.80
2017-10-09T21:33:55.362Z,17.90
2017-10-09T21:36:22.843Z,18.57
2017-10-09T21:38:50.303Z,18.40
2017-10-09T21:41:18.547Z,18.77
2017-10-09T21:43:46.015Z,17.70
2017-10-09T21:46:13.479Z,18.47
2017-10-09T21:48:41.740Z,18.37
2017-10-09T21:51:09.206Z,18.37
2017-10-09T21:53:36.695Z,19.17
2017-10-09T21:56:04.931Z,18.23
2017-10-09T21:58:32.400Z,19.00
2017-10-09T22:00:59.880Z,18.50
2017-10-09T22:03:28.115Z,18.93
2017-10-09T22:05:55.568Z,18.43
2017-10-09T22:08:23.059Z,17.70
2017-10-09T22:10:51.306Z,17.67
2017-10-09T22:13:18.771Z,18.17
2017-10-09T22:15:46.237Z,19.20
2017-10-09T22:18:13.719Z,18.20
2017-10-09T22:20:41.948Z,17.57
2017-10-09T22:23:09.421Z,17.80
2017-10-09T22:25:36.903Z,17.13
2017-10-09T22:28:05.131Z,16.27
2017-10-09T22:30:32.619Z,16.70
2017-10-09T22:33:00.094Z,15.53
2017-10-09T22:35:28.327Z,16.80
2017-10-09T22:37:55.803Z,17.27
2017-10-09T22:40:23.259Z,16.90
2017-10-09T22:42:50.722Z,16.57
2017-10-09T22:45:18.199Z,15.60
2017-10-09T22:47:45.664Z,14.93
2017-10-09T22:50:13.140Z,14.90
2017-10-09T22:52:40.598Z,15.30
2017-10-09T22:55:08.075Z,15.20
2017-10-09T22:57:35.535Z,14.03
2017-10-09T23:00:03.020Z,13.70
2017-10-09T23:02:31.250Z,12.93
2017-10-09T23:04:58.734Z,13.40
2017-10-09T23:07:26.207Z,14.60
2017-10-09T23:09:54.435Z,12.27
2017-10-09T23:12:21.933Z,13.33
2017-10-09T23:14:50.160Z,13.57
2017-10-09T23:17:17.635Z,14.03
2017-10-09T23:19:45.102Z,14.93
2017-10-09T23:22:13.358Z,12.40
2017-10-09T23:24:40.858Z,12.97
2017-10-09T23:27:09.112Z,12.33
2017-10-09T23:29:36.583Z,12.17
2017-10-09T23:32:04.809Z,11.17
2017-10-09T23:34:32.292Z,11.23
2017-10-09T23:36:59.764Z,10.57
2017-10-09T23:39:27.239Z,11.10
2017-10-09T23:41:55.470Z,11.87
2017-10-09T23:44:22.955Z,12.37
2017-10-09T23:46:50.435Z,10.93
2017-10-09T23:49:18.738Z,9.90
2017-10-09T23:51:46.207Z,9.90
2017-10-09T23:54:13.691Z,8.83
2017-10-09T23:56:41.164Z,8.77
2017-10-09T23:59:08.643Z,8.20
